createdAt,value
2022-09-11T03:59:15.095Z,1011.14
2022-09-11T04:00:15.050Z,1011.12
2022-09-11T04:01:15.196Z,1011.13
2022-09-11T04:02:13.496Z,1011.12
2022-09-11T04:03:15.079Z,1011.10
2022-09-11T04:04:15.065Z,1011.10
2022-09-11T04:05:15.055Z,1011.08
2022-09-11T04:06:15.081Z,1011.08
2022-09-11T04:07:15.068Z,1011.07
2022-09-11T04:08:15.078Z,1011.05
2022-09-11T04:09:15.054Z,1011.08
2022-09-11T04:10:15.055Z,1011.09
2022-09-11T04:11:15.071Z,1011.06
2022-09-11T04:12:15.057Z,1011.12
2022-09-11T04:13:15.058Z,1011.08
2022-09-11T04:14:15.074Z,1011.06
2022-09-11T04:15:13.427Z,1011.06
2022-09-11T04:16:15.129Z,1011.06
2022-09-11T04:17:15.058Z,1011.10
2022-09-11T04:18:15.066Z,1011.10
2022-09-11T04:19:15.093Z,1011.09
2022-09-11T04:20:15.073Z,1011.10
2022-09-11T04:21:15.065Z,1011.15
2022-09-11T04:22:15.065Z,1011.14
2022-09-11T04:23:15.066Z,1011.15
2022-09-11T04:24:15.067Z,1011.15
2022-09-11T04:25:15.095Z,1011.15
2022-09-11T04:26:15.067Z,1011.20
2022-09-11T04:27:15.071Z,1011.19
2022-09-11T04:28:15.066Z,1011.22
2022-09-11T04:29:15.108Z,1011.21
2022-09-11T04:30:15.182Z,1011.20
2022-09-11T04:31:15.128Z,1011.22
2022-09-11T04:32:15.075Z,1011.25
2022-09-11T04:33:15.076Z,1011.26
2022-09-11T04:34:15.110Z,1011.33
2022-09-11T04:35:15.079Z,1011.32
2022-09-11T04:36:15.092Z,1011.33
2022-09-11T04:37:15.089Z,1011.37
2022-09-11T04:38:15.079Z,1011.32
2022-09-11T04:39:15.092Z,1011.29
2022-09-11T04:40:15.118Z,1011.27
2022-09-11T04:41:15.095Z,1011.26
2022-09-11T04:42:15.097Z,1011.29
2022-09-11T04:43:15.085Z,1011.27
2022-09-11T04:44:15.092Z,1011.30
2022-09-11T04:45:15.117Z,1011.30
2022-09-11T04:46:13.304Z,1011.29
2022-09-11T04:47:15.102Z,1011.32
2022-09-11T04:48:15.085Z,1011.32
2022-09-11T04:49:15.114Z,1011.36
2022-09-11T04:50:15.090Z,1011.39
2022-09-11T04:51:15.113Z,1011.43
2022-09-11T04:52:15.103Z,1011.40
2022-09-11T04:53:15.101Z,1011.42
2022-09-11T04:54:15.119Z,1011.40
2022-09-11T04:55:15.123Z,1011.39
2022-09-11T04:56:15.120Z,1011.41
2022-09-11T04:57:15.093Z,1011.41
2022-09-11T04:58:15.094Z,1011.42
2022-09-11T04:59:15.112Z,1011.42
2022-09-11T05:00:15.113Z,1011.46
2022-09-11T05:01:15.172Z,1011.46
2022-09-11T05:02:15.268Z,1011.47
2022-09-11T05:03:15.122Z,1011.43
2022-09-11T05:04:15.146Z,1011.49
2022-09-11T05:05:15.117Z,1011.46
2022-09-11T05:06:15.117Z,1011.48
2022-09-11T05:07:15.162Z,1011.49
2022-09-11T05:08:15.101Z,1011.52
2022-09-11T05:09:15.103Z,1011.54
2022-09-11T05:10:15.138Z,1011.57
2022-09-11T05:11:13.206Z,1011.59
2022-09-11T05:12:15.117Z,1011.62
2022-09-11T05:13:13.212Z,1011.64
2022-09-11T05:14:13.203Z,1011.64
2022-09-11T05:15:13.193Z,1011.62
2022-09-11T05:16:13.216Z,1011.64
2022-09-11T05:17:15.138Z,1011.62
2022-09-11T05:18:13.188Z,1011.66
2022-09-11T05:19:13.192Z,1011.66
2022-09-11T05:20:15.134Z,1011.68
2022-09-11T05:21:13.176Z,1011.69
2022-09-11T05:22:15.113Z,1011.66
2022-09-11T05:23:13.189Z,1011.67
2022-09-11T05:24:15.114Z,1011.72
2022-09-11T05:25:14.167Z,1011.71
2022-09-11T05:26:15.140Z,1011.74
2022-09-11T05:27:13.158Z,1011.73
2022-09-11T05:28:13.177Z,1011.77
2022-09-11T05:29:13.150Z,1011.77
2022-09-11T05:30:15.120Z,1011.79
2022-09-11T05:31:14.654Z,1011.80
2022-09-11T05:32:15.143Z,1011.82
2022-09-11T05:33:14.145Z,1011.81
2022-09-11T05:34:15.129Z,1011.79
2022-09-11T05:35:15.153Z,1011.82
2022-09-11T05:36:14.633Z,1011.82
2022-09-11T05:37:14.633Z,1011.82
2022-09-11T05:38:13.129Z,1011.84
2022-09-11T05:39:13.125Z,1011.85
2022-09-11T05:40:14.696Z,1011.89
2022-09-11T05:41:14.138Z,1011.84
2022-09-11T05:42:13.122Z,1011.87
2022-09-11T05:43:13.125Z,1011.90
2022-09-11T05:44:14.671Z,1011.90
2022-09-11T05:45:13.110Z,1011.96
2022-09-11T05:46:14.651Z,1011.95
2022-09-11T05:47:13.097Z,1011.93
2022-09-11T05:48:13.100Z,1011.94
2022-09-11T05:49:14.659Z,1011.93
2022-09-11T05:50:14.659Z,1011.97
2022-09-11T05:51:13.092Z,1011.98
2022-09-11T05:52:14.644Z,1011.98
2022-09-11T05:53:14.645Z,1012.00
2022-09-11T05:54:14.653Z,1012.02
2022-09-11T05:55:14.683Z,1012.05
2022-09-11T05:56:14.664Z,1012.09
2022-09-11T05:57:14.688Z,1012.08
2022-09-11T05:58:14.653Z,1012.11
2022-09-11T05:59:14.650Z,1012.13
2022-09-11T06:00:14.641Z,1012.17
2022-09-11T06:01:14.769Z,1012.18
2022-09-11T06:02:14.731Z,1012.18
2022-09-11T06:03:15.504Z,1012.17
2022-09-11T06:04:13.061Z,1012.17
2022-09-11T06:05:13.058Z,1012.19
2022-09-11T06:06:13.070Z,1012.20
2022-09-11T06:07:14.687Z,1012.25
2022-09-11T06:08:13.041Z,1012.27
2022-09-11T06:09:13.040Z,1012.25
2022-09-11T06:10:13.034Z,1012.30
2022-09-11T06:11:13.024Z,1012.30
2022-09-11T06:12:14.674Z,1012.33
2022-09-11T06:13:13.044Z,1012.32
2022-09-11T06:14:13.036Z,1012.33
2022-09-11T06:15:36.278Z,1012.34
2022-09-11T06:16:17.826Z,1012.37
2022-09-11T06:17:13.030Z,1012.40
2022-09-11T06:18:13.009Z,1012.39
2022-09-11T06:19:13.017Z,1012.41
2022-09-11T06:20:14.677Z,1012.40
2022-09-11T06:21:13.025Z,1012.40
2022-09-11T06:22:14.679Z,1012.43
2022-09-11T06:23:14.689Z,1012.45
2022-09-11T06:24:14.668Z,1012.49
2022-09-11T06:25:14.665Z,1012.51
2022-09-11T06:26:14.676Z,1012.51
2022-09-11T06:27:14.680Z,1012.54
2022-09-11T06:28:15.675Z,1012.60
2022-09-11T06:29:14.691Z,1012.58
2022-09-11T06:30:14.678Z,1012.62
2022-09-11T06:31:14.670Z,1012.60
2022-09-11T06:32:14.706Z,1012.62
2022-09-11T06:33:12.972Z,1012.61
2022-09-11T06:34:14.687Z,1012.61
2022-09-11T06:35:12.959Z,1012.62
2022-09-11T06:36:14.189Z,1012.64
2022-09-11T06:37:12.966Z,1012.64
2022-09-11T06:38:14.692Z,1012.64
2022-09-11T06:39:12.974Z,1012.61
2022-09-11T06:40:13.010Z,1012.65
2022-09-11T06:41:12.956Z,1012.65
2022-09-11T06:42:12.940Z,1012.63
2022-09-11T06:43:12.945Z,1012.62
2022-09-11T06:44:14.694Z,1012.64
2022-09-11T06:45:12.937Z,1012.64
2022-09-11T06:46:14.750Z,1012.62
2022-09-11T06:47:12.925Z,1012.60
2022-09-11T06:48:12.930Z,1012.60
2022-09-11T06:49:12.925Z,1012.60
2022-09-11T06:50:14.697Z,1012.60
2022-09-11T06:51:12.925Z,1012.60
2022-09-11T06:52:12.915Z,1012.59
2022-09-11T06:53:14.712Z,1012.60
2022-09-11T06:54:14.721Z,1012.57
2022-09-11T06:55:12.924Z,1012.56
2022-09-11T06:56:14.703Z,1012.58
2022-09-11T06:57:12.894Z,1012.54
2022-09-11T06:58:14.694Z,1012.56
2022-09-11T06:59:14.725Z,1012.60
2022-09-11T07:00:13.893Z,1012.56
2022-09-11T07:01:14.797Z,1012.60
2022-09-11T07:02:13.073Z,1012.58
2022-09-11T07:03:14.708Z,1012.57
2022-09-11T07:04:14.728Z,1012.60
2022-09-11T07:05:12.890Z,1012.61
2022-09-11T07:06:14.703Z,1012.63
2022-09-11T07:07:14.729Z,1012.59
2022-09-11T07:08:14.734Z,1012.60
2022-09-11T07:09:15.739Z,1012.62
2022-09-11T07:10:14.713Z,1012.62
2022-09-11T07:11:14.700Z,1012.65
2022-09-11T07:12:14.719Z,1012.66
2022-09-11T07:13:14.714Z,1012.67
2022-09-11T07:14:14.731Z,1012.69
2022-09-11T07:15:13.861Z,1012.72
2022-09-11T07:16:12.893Z,1012.67
2022-09-11T07:17:14.719Z,1012.71
2022-09-11T07:18:12.914Z,1012.69
2022-09-11T07:19:14.753Z,1012.69
2022-09-11T07:20:14.716Z,1012.68
2022-09-11T07:21:12.842Z,1012.67
2022-09-11T07:22:12.845Z,1012.70
2022-09-11T07:23:12.827Z,1012.70
2022-09-11T07:24:14.724Z,1012.71
2022-09-11T07:25:14.736Z,1012.69
2022-09-11T07:26:14.718Z,1012.66
2022-09-11T07:27:14.243Z,1012.65
2022-09-11T07:28:14.718Z,1012.65
2022-09-11T07:29:14.747Z,1012.68
2022-09-11T07:30:14.735Z,1012.66
2022-09-11T07:31:18.684Z,1012.67
2022-09-11T07:32:14.743Z,1012.70
2022-09-11T07:33:14.723Z,1012.74
2022-09-11T07:34:14.737Z,1012.75
2022-09-11T07:35:14.722Z,1012.76
2022-09-11T07:36:14.738Z,1012.74
2022-09-11T07:37:14.743Z,1012.76
2022-09-11T07:38:14.754Z,1012.82
2022-09-11T07:39:14.790Z,1012.80
2022-09-11T07:40:14.776Z,1012.82
2022-09-11T07:41:14.739Z,1012.81
2022-09-11T07:42:14.729Z,1012.84
2022-09-11T07:43:14.741Z,1012.88
2022-09-11T07:44:14.734Z,1012.88
2022-09-11T07:45:14.748Z,1012.88
2022-09-11T07:46:14.736Z,1012.86
2022-09-11T07:47:14.831Z,1012.87
2022-09-11T07:48:14.754Z,1012.91
2022-09-11T07:49:14.748Z,1012.93
2022-09-11T07:50:14.742Z,1012.92
2022-09-11T07:51:14.761Z,1012.98
2022-09-11T07:52:16.703Z,1012.95
2022-09-11T07:53:12.750Z,1012.96
2022-09-11T07:54:13.766Z,1013.00
2022-09-11T07:55:12.795Z,1012.99
2022-09-11T07:56:14.238Z,1012.98
2022-09-11T07:57:14.285Z,1012.98
2022-09-11T07:58:14.253Z,1012.98
2022-09-11T07:59:14.266Z,1012.97
2022-09-11T08:00:14.265Z,1012.95
2022-09-11T08:01:14.315Z,1012.99
2022-09-11T08:02:14.331Z,1012.99
2022-09-11T08:03:14.266Z,1012.95
2022-09-11T08:04:14.260Z,1012.96
2022-09-11T08:05:14.253Z,1012.94
2022-09-11T08:06:16.066Z,1012.97
2022-09-11T08:07:14.286Z,1012.95
2022-09-11T08:08:14.256Z,1012.92
2022-09-11T08:09:14.275Z,1012.91
2022-09-11T08:10:27.315Z,1012.93
2022-09-11T08:11:14.281Z,1012.94
2022-09-11T08:12:14.256Z,1012.94
2022-09-11T08:13:14.286Z,1012.94
2022-09-11T08:14:14.259Z,1012.95
2022-09-11T08:15:14.268Z,1012.97
2022-09-11T08:16:14.311Z,1012.99
2022-09-11T08:17:14.272Z,1013.03
2022-09-11T08:18:15.292Z,1012.99
2022-09-11T08:19:13.689Z,1013.03
2022-09-11T08:20:12.702Z,1013.04
2022-09-11T08:21:13.170Z,1013.06
2022-09-11T08:22:14.282Z,1013.07
2022-09-11T08:23:12.687Z,1013.03
2022-09-11T08:24:12.683Z,1013.04
2022-09-11T08:25:12.689Z,1013.03
2022-09-11T08:26:14.279Z,1013.04
2022-09-11T08:27:14.280Z,1013.02
2022-09-11T08:28:14.293Z,1013.06
2022-09-11T08:29:13.684Z,1013.04
2022-09-11T08:30:12.671Z,1013.08
2022-09-11T08:31:14.318Z,1013.05
2022-09-11T08:32:14.294Z,1013.11
2022-09-11T08:33:12.696Z,1013.11
2022-09-11T08:34:14.273Z,1013.13
2022-09-11T08:35:12.657Z,1013.14
2022-09-11T08:36:14.277Z,1013.15
2022-09-11T08:37:14.294Z,1013.18
2022-09-11T08:38:14.287Z,1013.19
2022-09-11T08:39:14.296Z,1013.20
2022-09-11T08:40:14.389Z,1013.22
2022-09-11T08:41:14.286Z,1013.23
2022-09-11T08:42:14.293Z,1013.25
2022-09-11T08:43:14.284Z,1013.26
2022-09-11T08:44:14.316Z,1013.26
2022-09-11T08:45:12.643Z,1013.29
2022-09-11T08:46:14.277Z,1013.30
2022-09-11T08:47:14.293Z,1013.30
2022-09-11T08:48:14.286Z,1013.29
2022-09-11T08:49:14.312Z,1013.27
2022-09-11T08:50:14.316Z,1013.30
2022-09-11T08:51:14.304Z,1013.31
2022-09-11T08:52:14.320Z,1013.31
2022-09-11T08:53:13.011Z,1013.34
2022-09-11T08:54:14.335Z,1013.33
2022-09-11T08:55:12.649Z,1013.37
2022-09-11T08:56:12.612Z,1013.36
2022-09-11T08:57:12.615Z,1013.36
2022-09-11T08:58:12.633Z,1013.41
2022-09-11T08:59:14.327Z,1013.39
2022-09-11T09:00:14.323Z,1013.41
2022-09-11T09:01:14.406Z,1013.38
2022-09-11T09:02:12.710Z,1013.44
2022-09-11T09:03:14.305Z,1013.42
2022-09-11T09:04:14.364Z,1013.45
2022-09-11T09:05:14.318Z,1013.44
2022-09-11T09:06:14.304Z,1013.43
2022-09-11T09:07:14.302Z,1013.47
2022-09-11T09:08:14.322Z,1013.49
2022-09-11T09:09:14.303Z,1013.46
2022-09-11T09:10:14.339Z,1013.49
2022-09-11T09:11:14.309Z,1013.51
2022-09-11T09:12:14.312Z,1013.51
2022-09-11T09:13:14.319Z,1013.56
2022-09-11T09:14:14.322Z,1013.59
2022-09-11T09:15:14.337Z,1013.59
2022-09-11T09:16:14.320Z,1013.57
2022-09-11T09:17:12.590Z,1013.62
2022-09-11T09:18:12.577Z,1013.62
2022-09-11T09:19:12.611Z,1013.62
2022-09-11T09:20:13.828Z,1013.65
2022-09-11T09:21:12.564Z,1013.62
2022-09-11T09:22:12.564Z,1013.63
2022-09-11T09:23:12.574Z,1013.63
2022-09-11T09:24:12.564Z,1013.62
2022-09-11T09:25:14.333Z,1013.62
2022-09-11T09:26:12.557Z,1013.60
2022-09-11T09:27:12.552Z,1013.65
2022-09-11T09:28:12.561Z,1013.66
2022-09-11T09:29:12.609Z,1013.62
2022-09-11T09:30:14.349Z,1013.63
2022-09-11T09:31:14.388Z,1013.62
2022-09-11T09:32:14.329Z,1013.65
2022-09-11T09:33:14.352Z,1013.69
2022-09-11T09:34:14.341Z,1013.69
2022-09-11T09:35:12.549Z,1013.71
2022-09-11T09:36:13.538Z,1013.69
2022-09-11T09:37:14.343Z,1013.68
2022-09-11T09:38:12.540Z,1013.76
2022-09-11T09:39:14.331Z,1013.74
2022-09-11T09:40:14.413Z,1013.74
2022-09-11T09:41:12.537Z,1013.76
2022-09-11T09:42:14.350Z,1013.76
2022-09-11T09:43:14.335Z,1013.77
2022-09-11T09:44:15.491Z,1013.77
2022-09-11T09:45:14.366Z,1013.75
2022-09-11T09:46:12.577Z,1013.76
2022-09-11T09:47:14.358Z,1013.80
2022-09-11T09:48:12.514Z,1013.75
2022-09-11T09:49:14.382Z,1013.75
2022-09-11T09:50:12.519Z,1013.75
2022-09-11T09:51:12.511Z,1013.77
2022-09-11T09:52:14.366Z,1013.76
2022-09-11T09:53:12.501Z,1013.79
2022-09-11T09:54:14.368Z,1013.81
2022-09-11T09:55:14.357Z,1013.82
2022-09-11T09:56:12.512Z,1013.83
2022-09-11T09:57:12.497Z,1013.83
2022-09-11T09:58:12.501Z,1013.87
2022-09-11T09:59:12.501Z,1013.84
2022-09-11T10:00:14.367Z,1013.83
2022-09-11T10:01:16.369Z,1013.87
2022-09-11T10:02:14.396Z,1013.86
2022-09-11T10:13:25.483Z,1013.90
2022-09-11T10:14:49.956Z,1013.94
2022-09-11T10:15:25.440Z,1013.94
2022-09-11T10:16:25.428Z,1013.90
2022-09-11T10:17:23.813Z,1013.89
2022-09-11T10:18:25.447Z,1013.91
2022-09-11T10:19:23.800Z,1013.88
2022-09-11T10:20:23.803Z,1013.87
2022-09-11T10:21:25.452Z,1013.90
2022-09-11T10:22:23.804Z,1013.84
2022-09-11T10:23:23.806Z,1013.88
2022-09-11T10:24:23.795Z,1013.89
2022-09-11T10:25:25.447Z,1013.86
2022-09-11T10:26:23.778Z,1013.89
2022-09-11T10:27:27.236Z,1013.87
2022-09-11T10:28:23.789Z,1013.85
2022-09-11T10:29:23.783Z,1013.86
2022-09-11T10:30:25.464Z,1013.84
2022-09-11T10:31:23.827Z,1013.81
2022-09-11T10:32:25.455Z,1013.81
2022-09-11T10:33:25.474Z,1013.84
2022-09-11T10:34:25.467Z,1013.85
2022-09-11T10:35:25.441Z,1013.84
2022-09-11T10:36:25.466Z,1013.87
2022-09-11T10:37:25.442Z,1013.82
2022-09-11T10:38:25.462Z,1013.84
2022-09-11T10:39:25.478Z,1013.81
2022-09-11T10:40:23.766Z,1013.85
2022-09-11T10:41:25.468Z,1013.79
2022-09-11T10:42:25.487Z,1013.81
2022-09-11T10:43:25.463Z,1013.81
2022-09-11T10:44:26.485Z,1013.81
2022-09-11T10:45:25.455Z,1013.83
2022-09-11T10:46:25.460Z,1013.83
2022-09-11T10:47:25.452Z,1013.84
2022-09-11T10:48:25.477Z,1013.81
2022-09-11T10:49:25.457Z,1013.79
2022-09-11T10:50:25.481Z,1013.76
2022-09-11T10:51:23.813Z,1013.77
2022-09-11T10:52:23.750Z,1013.79
2022-09-11T10:53:23.808Z,1013.79
2022-09-11T10:54:25.470Z,1013.80
2022-09-11T10:55:25.515Z,1013.77
2022-09-11T10:56:23.743Z,1013.81
2022-09-11T10:57:23.752Z,1013.80
2022-09-11T10:58:23.745Z,1013.83
2022-09-11T10:59:23.754Z,1013.86
2022-09-11T11:00:25.496Z,1013.85
2022-09-11T11:01:25.521Z,1013.83
2022-09-11T11:02:23.760Z,1013.88
2022-09-11T11:03:23.763Z,1013.84
2022-09-11T11:04:25.483Z,1013.87
2022-09-11T11:05:23.741Z,1013.81
2022-09-11T11:06:23.757Z,1013.80
2022-09-11T11:07:25.497Z,1013.82
2022-09-11T11:08:23.764Z,1013.76
2022-09-11T11:09:28.991Z,1013.76
2022-09-11T11:10:23.746Z,1013.77
2022-09-11T11:11:25.476Z,1013.76
2022-09-11T11:12:23.741Z,1013.74
2022-09-11T11:13:25.491Z,1013.73
2022-09-11T11:14:25.490Z,1013.74
2022-09-11T11:15:28.156Z,1013.73
2022-09-11T11:16:25.496Z,1013.76
2022-09-11T11:17:23.752Z,1013.73
2022-09-11T11:18:25.525Z,1013.74
2022-09-11T11:19:25.005Z,1013.71
2022-09-11T11:20:25.489Z,1013.71
2022-09-11T11:21:25.492Z,1013.78
2022-09-11T11:22:25.494Z,1013.72
2022-09-11T11:23:25.524Z,1013.73
2022-09-11T11:24:25.502Z,1013.72
2022-09-11T11:25:25.504Z,1013.71
2022-09-11T11:26:25.503Z,1013.77
2022-09-11T11:27:25.497Z,1013.78
2022-09-11T11:28:25.504Z,1013.71
2022-09-11T11:29:25.532Z,1013.76
2022-09-11T11:30:23.776Z,1013.72
2022-09-11T11:31:24.819Z,1013.75
2022-09-11T11:32:23.793Z,1013.73
2022-09-11T11:33:25.504Z,1013.74
2022-09-11T11:34:25.512Z,1013.72
2022-09-11T11:35:23.794Z,1013.76
2022-09-11T11:36:25.504Z,1013.74
2022-09-11T11:37:25.506Z,1013.78
2022-09-11T11:38:25.505Z,1013.76
2022-09-11T11:39:25.521Z,1013.72
2022-09-11T11:40:25.520Z,1013.74
2022-09-11T11:41:25.558Z,1013.68
2022-09-11T11:42:25.580Z,1013.74
2022-09-11T11:43:25.530Z,1013.70
2022-09-11T11:44:23.826Z,1013.70
2022-09-11T11:45:25.525Z,1013.75
2022-09-11T11:46:25.514Z,1013.73
2022-09-11T11:47:25.522Z,1013.77
2022-09-11T11:48:25.528Z,1013.73
2022-09-11T11:49:25.534Z,1013.71
2022-09-11T11:50:28.599Z,1013.76
2022-09-11T11:51:25.524Z,1013.77
2022-09-11T11:52:25.523Z,1013.78
2022-09-11T11:53:25.528Z,1013.81
2022-09-11T11:54:25.527Z,1013.84
2022-09-11T11:55:25.542Z,1013.76
2022-09-11T11:56:25.524Z,1013.78
2022-09-11T11:57:25.550Z,1013.76
2022-09-11T11:58:25.548Z,1013.78
2022-09-11T11:59:25.529Z,1013.77
2022-09-11T12:00:25.566Z,1013.76
2022-09-11T12:01:25.539Z,1013.76
2022-09-11T12:02:25.545Z,1013.75
2022-09-11T12:03:25.631Z,1013.70
2022-09-11T12:04:23.920Z,1013.77
2022-09-11T12:05:25.586Z,1013.75
2022-09-11T12:06:23.958Z,1013.72
2022-09-11T12:07:23.926Z,1013.70
2022-09-11T12:08:25.550Z,1013.71
2022-09-11T12:09:25.552Z,1013.65
2022-09-11T12:10:25.557Z,1013.66
2022-09-11T12:11:25.556Z,1013.68
2022-09-11T12:12:25.556Z,1013.64
2022-09-11T12:13:25.545Z,1013.66
2022-09-11T12:14:25.559Z,1013.63
2022-09-11T12:15:25.556Z,1013.60
2022-09-11T12:16:25.621Z,1013.59
2022-09-11T12:17:25.569Z,1013.62
2022-09-11T12:18:25.557Z,1013.61
2022-09-11T12:19:26.010Z,1013.64
2022-09-11T12:20:25.580Z,1013.61
2022-09-11T12:21:25.547Z,1013.63
2022-09-11T12:22:25.578Z,1013.64
2022-09-11T12:23:25.553Z,1013.60
2022-09-11T12:24:25.568Z,1013.61
2022-09-11T12:25:25.588Z,1013.58
2022-09-11T12:26:25.575Z,1013.59
2022-09-11T12:27:25.581Z,1013.59
2022-09-11T12:28:25.583Z,1013.62
2022-09-11T12:29:25.565Z,1013.64
2022-09-11T12:30:25.586Z,1013.59
2022-09-11T12:31:25.604Z,1013.57
2022-09-11T12:32:26.125Z,1013.56
2022-09-11T12:33:25.577Z,1013.58
2022-09-11T12:34:25.566Z,1013.56
2022-09-11T12:35:25.606Z,1013.56
2022-09-11T12:36:25.576Z,1013.55
2022-09-11T12:37:24.069Z,1013.48
2022-09-11T12:38:24.079Z,1013.54
2022-09-11T12:39:24.080Z,1013.50
2022-09-11T12:40:25.607Z,1013.51
2022-09-11T12:41:24.093Z,1013.50
2022-09-11T12:42:26.108Z,1013.48
2022-09-11T12:43:25.127Z,1013.48
2022-09-11T12:44:24.115Z,1013.46
2022-09-11T12:45:26.142Z,1013.49
2022-09-11T12:46:25.146Z,1013.45
2022-09-11T12:47:26.100Z,1013.49
2022-09-11T12:48:24.136Z,1013.44
2022-09-11T12:49:26.099Z,1013.42
2022-09-11T12:50:24.146Z,1013.43
2022-09-11T12:51:24.160Z,1013.43
2022-09-11T12:52:24.213Z,1013.40
2022-09-11T12:53:26.107Z,1013.37
2022-09-11T12:54:24.172Z,1013.37
2022-09-11T12:55:26.107Z,1013.41
2022-09-11T12:56:26.167Z,1013.35
2022-09-11T12:57:26.149Z,1013.38
2022-09-11T12:58:26.113Z,1013.38
2022-09-11T12:59:26.111Z,1013.37
2022-09-11T13:00:26.109Z,1013.40
2022-09-11T13:01:26.243Z,1013.38
2022-09-11T13:02:26.199Z,1013.36
2022-09-11T13:03:26.103Z,1013.37
2022-09-11T13:04:26.135Z,1013.36
2022-09-11T13:05:26.144Z,1013.36
2022-09-11T13:06:26.106Z,1013.36
2022-09-11T13:07:24.288Z,1013.33
2022-09-11T13:08:24.271Z,1013.33
2022-09-11T13:09:24.263Z,1013.37
2022-09-11T13:10:26.175Z,1013.37
2022-09-11T13:11:26.116Z,1013.35
2022-09-11T13:12:26.126Z,1013.28
2022-09-11T13:13:26.114Z,1013.26
2022-09-11T13:14:26.116Z,1013.29
2022-09-11T13:15:26.140Z,1013.31
2022-09-11T13:16:26.118Z,1013.34
2022-09-11T13:17:26.155Z,1013.28
2022-09-11T13:18:26.132Z,1013.29
2022-09-11T13:19:26.136Z,1013.28
2022-09-11T13:20:26.168Z,1013.29
2022-09-11T13:21:26.524Z,1013.28
2022-09-11T13:22:26.156Z,1013.31
2022-09-11T13:23:26.141Z,1013.28
2022-09-11T13:24:26.155Z,1013.24
2022-09-11T13:25:26.130Z,1013.25
2022-09-11T13:26:24.372Z,1013.28
2022-09-11T13:27:26.132Z,1013.28
2022-09-11T13:28:27.398Z,1013.27
2022-09-11T13:29:26.168Z,1013.29
2022-09-11T13:30:26.135Z,1013.26
2022-09-11T13:31:26.176Z,1013.20
2022-09-11T13:32:25.471Z,1013.21
2022-09-11T13:33:24.409Z,1013.21
2022-09-11T13:34:24.422Z,1013.23
2022-09-11T13:35:24.423Z,1013.15
2022-09-11T13:36:26.159Z,1013.20
2022-09-11T13:37:26.157Z,1013.18
2022-09-11T13:38:24.455Z,1013.18
2022-09-11T13:39:24.463Z,1013.17
2022-09-11T13:40:24.473Z,1013.18
2022-09-11T13:41:26.170Z,1013.18
2022-09-11T13:42:26.149Z,1013.20
2022-09-11T13:43:26.154Z,1013.18
2022-09-11T13:44:26.154Z,1013.15
2022-09-11T13:45:24.535Z,1013.11
2022-09-11T13:46:26.186Z,1013.09
2022-09-11T13:47:26.158Z,1013.12
2022-09-11T13:48:24.508Z,1013.08
2022-09-11T13:49:26.177Z,1013.08
2022-09-11T13:50:26.171Z,1013.05
2022-09-11T13:51:26.175Z,1013.04
2022-09-11T13:52:26.163Z,1013.03
2022-09-11T13:53:26.166Z,1013.04
2022-09-11T13:54:26.690Z,1013.03
2022-09-11T13:55:26.169Z,1013.08
2022-09-11T13:56:26.170Z,1013.09
2022-09-11T13:57:26.175Z,1013.03
2022-09-11T13:58:24.574Z,1013.03
2022-09-11T13:59:26.187Z,1013.01
2022-09-11T14:00:24.598Z,1013.03
2022-09-11T14:01:24.607Z,1013.04
2022-09-11T14:02:24.643Z,1012.99
2022-09-11T14:03:26.197Z,1012.99
2022-09-11T14:04:24.617Z,1012.97
2022-09-11T14:05:24.632Z,1012.96
2022-09-11T14:06:24.644Z,1012.93
2022-09-11T14:07:26.192Z,1012.94
2022-09-11T14:08:25.146Z,1012.96
2022-09-11T14:09:24.662Z,1012.98
2022-09-11T14:10:24.660Z,1012.94
2022-09-11T14:11:24.660Z,1012.88
2022-09-11T14:12:26.207Z,1012.90
2022-09-11T14:13:24.676Z,1012.86
2022-09-11T14:14:24.704Z,1012.89
2022-09-11T14:15:24.720Z,1012.88
2022-09-11T14:16:26.248Z,1012.86
2022-09-11T14:17:24.700Z,1012.85
2022-09-11T14:18:26.214Z,1012.85
2022-09-11T14:19:24.717Z,1012.85
2022-09-11T14:20:25.732Z,1012.86
2022-09-11T14:21:26.714Z,1012.83
2022-09-11T14:22:25.769Z,1012.79
2022-09-11T14:23:26.726Z,1012.80
2022-09-11T14:24:24.749Z,1012.81
2022-09-11T14:25:26.714Z,1012.82
2022-09-11T14:26:24.763Z,1012.87
2022-09-11T14:27:26.722Z,1012.85
2022-09-11T14:28:24.781Z,1012.88
2022-09-11T14:29:26.718Z,1012.85
2022-09-11T14:30:24.772Z,1012.85
2022-09-11T14:31:26.723Z,1012.85
2022-09-11T14:32:24.781Z,1012.80
2022-09-11T14:33:24.790Z,1012.78
2022-09-11T14:34:26.836Z,1012.78
2022-09-11T14:35:24.805Z,1012.81
2022-09-11T14:36:26.720Z,1012.84
2022-09-11T14:37:26.759Z,1012.86
2022-09-11T14:38:24.813Z,1012.81
2022-09-11T14:39:26.750Z,1012.82
2022-09-11T14:40:24.817Z,1012.85
2022-09-11T14:41:24.837Z,1012.80
2022-09-11T14:42:26.729Z,1012.82
2022-09-11T14:43:26.748Z,1012.81
2022-09-11T14:44:26.736Z,1012.80
2022-09-11T14:45:26.725Z,1012.78
2022-09-11T14:46:26.796Z,1012.78
2022-09-11T14:47:26.771Z,1012.79
2022-09-11T14:48:26.729Z,1012.79
2022-09-11T14:49:26.740Z,1012.79
2022-09-11T14:50:26.749Z,1012.76
2022-09-11T14:51:26.758Z,1012.76
2022-09-11T14:52:26.731Z,1012.74
2022-09-11T14:53:26.749Z,1012.73
2022-09-11T14:54:26.742Z,1012.75
2022-09-11T14:55:26.733Z,1012.74
2022-09-11T14:56:26.731Z,1012.78
2022-09-11T14:57:26.810Z,1012.70
2022-09-11T14:58:26.767Z,1012.68
2022-09-11T14:59:26.758Z,1012.72
2022-09-11T15:00:26.754Z,1012.71
2022-09-11T15:01:26.811Z,1012.67
2022-09-11T15:02:26.759Z,1012.66
2022-09-11T15:03:26.798Z,1012.66
2022-09-11T15:04:26.754Z,1012.63
2022-09-11T15:05:26.769Z,1012.65
2022-09-11T15:06:26.786Z,1012.61
2022-09-11T15:07:26.274Z,1012.63
2022-09-11T15:08:26.777Z,1012.60
2022-09-11T15:09:24.935Z,1012.58
2022-09-11T15:10:24.917Z,1012.61
2022-09-11T15:11:24.920Z,1012.58
2022-09-11T15:12:26.771Z,1012.61
2022-09-11T15:13:26.292Z,1012.59
2022-09-11T15:14:51.835Z,1012.67
2022-09-11T15:15:26.777Z,1012.67
2022-09-11T15:16:24.941Z,1012.66
2022-09-11T15:17:26.763Z,1012.67
2022-09-11T15:18:26.778Z,1012.67
2022-09-11T15:19:26.767Z,1012.64
2022-09-11T15:20:26.827Z,1012.64
2022-09-11T15:21:26.838Z,1012.62
2022-09-11T15:22:26.770Z,1012.58
2022-09-11T15:23:26.817Z,1012.59
2022-09-11T15:24:26.800Z,1012.59
2022-09-11T15:25:26.804Z,1012.54
2022-09-11T15:26:26.774Z,1012.54
2022-09-11T15:27:26.772Z,1012.53
2022-09-11T15:28:26.786Z,1012.54
2022-09-11T15:29:31.215Z,1012.53
2022-09-11T15:30:26.778Z,1012.52
2022-09-11T15:31:26.848Z,1012.50
2022-09-11T15:32:26.781Z,1012.50
2022-09-11T15:33:26.793Z,1012.48
2022-09-11T15:34:26.831Z,1012.50
2022-09-11T15:35:29.572Z,1012.47
2022-09-11T15:36:26.830Z,1012.43
2022-09-11T15:37:26.794Z,1012.47
2022-09-11T15:38:26.787Z,1012.48
2022-09-11T15:39:26.789Z,1012.43
2022-09-11T15:40:26.832Z,1012.46
2022-09-11T15:41:26.789Z,1012.45
2022-09-11T15:42:26.788Z,1012.47
2022-09-11T15:43:26.798Z,1012.49
2022-09-11T15:44:26.878Z,1012.47
2022-09-11T15:45:26.899Z,1012.50
2022-09-11T15:46:26.819Z,1012.50
2022-09-11T15:47:25.069Z,1012.52
2022-09-11T15:48:25.065Z,1012.53
2022-09-11T15:49:26.829Z,1012.51
2022-09-11T15:50:25.077Z,1012.54
2022-09-11T15:51:25.089Z,1012.50
2022-09-11T15:52:25.090Z,1012.52
2022-09-11T15:53:26.816Z,1012.50
2022-09-11T15:54:26.836Z,1012.50
2022-09-11T15:55:25.089Z,1012.47
2022-09-11T15:56:26.827Z,1012.43
2022-09-11T15:57:25.106Z,1012.46
2022-09-11T15:58:26.805Z,1012.46
2022-09-11T15:59:26.827Z,1012.44
2022-09-11T16:00:25.094Z,1012.45
2022-09-11T16:12:47.962Z,1012.35
2022-09-11T16:13:47.917Z,1012.39
2022-09-11T16:14:47.922Z,1012.39
2022-09-11T16:15:47.948Z,1012.39
2022-09-11T16:16:46.388Z,1012.37
2022-09-11T16:17:47.941Z,1012.41
2022-09-11T16:18:46.366Z,1012.38
2022-09-11T16:19:46.375Z,1012.37
2022-09-11T16:20:46.370Z,1012.39
2022-09-11T16:21:46.394Z,1012.41
2022-09-11T16:22:47.940Z,1012.36
2022-09-11T16:23:51.162Z,1012.40
2022-09-11T16:24:47.952Z,1012.39
2022-09-11T16:25:46.368Z,1012.40